createdAt,value
2023-04-18T00:01:07.700Z,13.68
2023-04-18T00:03:39.156Z,13.40
2023-04-18T00:06:15.573Z,14.25
2023-04-18T00:08:46.830Z,13.93
2023-04-18T00:11:21.052Z,18.50
2023-04-18T00:13:50.661Z,14.82
2023-04-18T00:16:20.527Z,13.93
2023-04-18T00:19:01.821Z,14.27
2023-04-18T00:21:33.647Z,15.60
2023-04-18T00:26:31.901Z,19.85
2023-04-18T00:29:01.236Z,13.65
2023-04-18T00:31:36.786Z,14.73
2023-04-18T00:34:06.079Z,18.70
2023-04-18T00:36:37.255Z,23.10
2023-04-18T00:39:11.801Z,14.90
2023-04-18T00:41:46.264Z,28.95
2023-04-18T00:44:15.613Z,18.25
2023-04-18T00:46:45.155Z,16.92
2023-04-18T00:49:15.117Z,17.98
2023-04-18T00:51:47.393Z,16.75
2023-04-18T00:54:24.875Z,22.10
2023-04-18T00:56:54.457Z,18.55
2023-04-18T00:59:23.969Z,22.65
2023-04-18T01:01:58.471Z,24.08
2023-04-18T01:04:27.907Z,17.23
2023-04-18T01:06:59.204Z,21.38
2023-04-18T01:09:33.161Z,12.27
2023-04-18T01:14:38.542Z,17.52
2023-04-18T01:17:10.689Z,18.60
2023-04-18T01:19:40.049Z,18.58
2023-04-18T01:22:15.198Z,17.20
2023-04-18T01:24:46.609Z,14.15
2023-04-18T01:27:17.208Z,15.68
2023-04-18T01:29:51.745Z,16.38
2023-04-18T01:32:20.991Z,14.32
2023-04-18T01:34:52.821Z,15.90
2023-04-18T01:39:53.531Z,23.00
2023-04-18T01:42:33.728Z,20.33
2023-04-18T01:45:03.631Z,18.48
2023-04-18T01:47:33.312Z,16.70
2023-04-18T01:50:10.441Z,15.63
2023-04-18T01:52:39.746Z,16.52
2023-04-18T01:55:17.238Z,17.08
2023-04-18T01:57:46.880Z,15.20
2023-04-18T02:00:16.886Z,19.58
2023-04-18T02:05:26.764Z,18.77
2023-04-18T02:07:55.905Z,16.98
2023-04-18T02:10:32.204Z,19.55
2023-04-18T02:13:06.759Z,18.30
2023-04-18T02:15:36.474Z,18.00
2023-04-18T02:18:06.541Z,11.00
2023-04-18T02:20:36.010Z,14.52
2023-04-18T02:23:05.776Z,15.82
2023-04-18T02:25:42.141Z,19.17
2023-04-18T02:30:40.666Z,16.45
2023-04-18T02:33:09.989Z,18.50
2023-04-18T02:35:40.306Z,16.00
2023-04-18T02:38:09.526Z,15.05
2023-04-18T02:40:47.121Z,12.73
2023-04-18T02:43:16.454Z,16.05
2023-04-18T02:45:45.617Z,16.02
2023-04-18T02:48:15.195Z,15.63
2023-04-18T02:50:44.475Z,17.52
2023-04-18T02:53:14.018Z,15.15
2023-04-18T02:58:46.882Z,19.17
2023-04-18T03:01:46.178Z,13.82
2023-04-18T03:04:18.274Z,14.73
2023-04-18T03:07:07.929Z,20.73
2023-04-18T03:12:19.721Z,14.45
2023-04-18T03:20:00.541Z,25.08
2023-04-18T03:22:36.190Z,23.55
2023-04-18T03:25:06.645Z,21.33
2023-04-18T03:27:58.309Z,24.90
2023-04-18T03:30:28.723Z,15.52
2023-04-18T03:35:37.822Z,24.88
2023-04-18T03:38:07.860Z,33.42
2023-04-18T03:40:41.885Z,34.45
2023-04-18T03:46:03.267Z,26.58
2023-04-18T03:48:35.477Z,15.95
2023-04-18T03:51:13.784Z,21.73
2023-04-18T03:53:43.701Z,25.17
2023-04-18T03:56:13.333Z,25.63
2023-04-18T03:58:56.018Z,14.88
2023-04-18T04:01:25.669Z,14.38
2023-04-18T04:04:09.050Z,14.32
2023-04-18T04:06:38.596Z,12.57
2023-04-18T04:09:07.901Z,18.38
2023-04-18T04:11:43.091Z,17.98
2023-04-18T04:14:25.895Z,17.67
2023-04-18T04:16:56.068Z,14.20
2023-04-18T04:19:25.953Z,16.45
2023-04-18T04:22:09.280Z,13.23
2023-04-18T04:24:39.297Z,12.05
2023-04-18T04:27:10.789Z,11.65
2023-04-18T04:29:43.440Z,17.38
2023-04-18T04:32:13.204Z,12.68
2023-04-18T04:34:44.553Z,16.02
2023-04-18T04:37:15.013Z,12.70
2023-04-18T04:39:56.676Z,13.38
2023-04-18T04:42:35.612Z,12.73
2023-04-18T04:45:19.728Z,16.27
2023-04-18T04:47:49.534Z,16.10
2023-04-18T04:50:20.645Z,19.77
2023-04-18T04:52:50.313Z,17.52
2023-04-18T04:55:20.675Z,19.30
2023-04-18T04:57:55.851Z,18.67
2023-04-18T05:00:47.596Z,18.98
2023-04-18T05:03:17.304Z,22.92
2023-04-18T05:05:47.096Z,20.63
2023-04-18T05:08:16.401Z,17.88
2023-04-18T05:10:45.714Z,20.13
2023-04-18T05:13:15.096Z,18.40
2023-04-18T05:15:44.442Z,18.25
2023-04-18T05:23:55.494Z,28.88
2023-04-18T05:26:25.136Z,23.15
2023-04-18T05:29:19.453Z,25.60
2023-04-18T05:31:49.251Z,45.20
2023-04-18T05:36:55.626Z,45.30
2023-04-18T05:39:25.117Z,38.08
2023-04-18T05:41:54.479Z,34.17
2023-04-18T05:44:38.769Z,29.63
2023-04-18T05:47:08.195Z,43.47
2023-04-18T05:49:41.297Z,31.52
2023-04-18T05:52:11.187Z,30.85
2023-04-18T05:54:40.868Z,35.30
2023-04-18T05:57:10.181Z,45.42
2023-04-18T05:59:39.874Z,31.85
2023-04-18T06:02:15.393Z,41.03
2023-04-18T06:04:48.330Z,37.15
2023-04-18T06:07:18.428Z,29.85
2023-04-18T06:09:49.483Z,32.90
2023-04-18T06:12:18.877Z,35.30
2023-04-18T06:14:48.396Z,27.63
2023-04-18T06:17:17.774Z,25.38
2023-04-18T06:19:49.481Z,23.75
2023-04-18T06:24:55.312Z,19.52
2023-04-18T06:27:31.187Z,25.10
2023-04-18T06:30:01.973Z,18.95
2023-04-18T06:35:24.127Z,41.72
2023-04-18T06:37:54.801Z,26.25
2023-04-18T06:40:24.454Z,25.23
2023-04-18T06:42:53.890Z,30.83
2023-04-18T06:45:23.585Z,25.30
2023-04-18T06:47:59.432Z,22.05
2023-04-18T06:50:31.474Z,30.50
2023-04-18T06:53:00.831Z,25.98
2023-04-18T06:55:37.707Z,23.65
2023-04-18T06:58:08.201Z,19.40
2023-04-18T07:00:42.767Z,18.50
2023-04-18T07:03:12.915Z,23.08
2023-04-18T07:05:44.785Z,16.95
2023-04-18T07:08:14.450Z,18.52
2023-04-18T07:10:44.188Z,16.48
2023-04-18T07:13:13.449Z,16.73
2023-04-18T07:15:47.858Z,12.23
2023-04-18T07:18:36.543Z,13.85
2023-04-18T07:21:10.620Z,15.55
2023-04-18T07:23:40.482Z,12.27
2023-04-18T07:26:11.110Z,12.18
2023-04-18T07:28:40.480Z,12.13
2023-04-18T07:31:12.250Z,11.13
2023-04-18T07:36:14.130Z,11.90
2023-04-18T07:38:48.720Z,21.63
2023-04-18T07:41:18.049Z,20.25
2023-04-18T07:43:47.409Z,21.75
2023-04-18T07:46:16.809Z,17.75
2023-04-18T07:48:46.300Z,16.25
2023-04-18T07:51:18.216Z,14.63
2023-04-18T07:53:47.850Z,13.55
2023-04-18T07:56:17.149Z,14.82
2023-04-18T08:01:23.952Z,13.73
2023-04-18T08:06:32.185Z,14.93
2023-04-18T08:09:04.061Z,17.10
2023-04-18T08:11:38.540Z,14.68
2023-04-18T08:14:07.846Z,17.27
2023-04-18T08:16:37.117Z,16.55
2023-04-18T08:19:21.795Z,11.20
2023-04-18T08:21:54.080Z,12.13
2023-04-18T08:24:30.413Z,12.35
2023-04-18T08:27:00.033Z,18.08
2023-04-18T08:29:29.821Z,17.70
2023-04-18T08:31:59.435Z,18.17
2023-04-18T08:34:29.007Z,14.48
2023-04-18T08:37:05.540Z,14.00
2023-04-18T08:39:35.090Z,12.68
2023-04-18T08:42:05.592Z,14.85
2023-04-18T08:44:40.829Z,22.65
2023-04-18T08:47:11.991Z,18.55
2023-04-18T08:49:47.467Z,15.63
2023-04-18T08:52:19.094Z,11.43
2023-04-18T08:54:49.371Z,14.88
2023-04-18T08:57:26.596Z,20.15
2023-04-18T08:59:56.659Z,16.83
2023-04-18T09:02:38.608Z,13.52
2023-04-18T09:05:14.607Z,13.45
2023-04-18T09:07:46.428Z,14.43
2023-04-18T09:10:27.185Z,16.38
2023-04-18T09:13:02.971Z,18.77
2023-04-18T09:15:34.210Z,17.98
2023-04-18T09:18:04.297Z,17.10
2023-04-18T09:20:40.748Z,20.05
2023-04-18T09:23:15.158Z,17.20
2023-04-18T09:25:47.647Z,21.85
2023-04-18T09:28:26.633Z,16.45
2023-04-18T09:30:58.496Z,13.43
2023-04-18T09:33:37.732Z,14.85
2023-04-18T09:36:20.236Z,17.25
2023-04-18T09:39:02.151Z,15.35
2023-04-18T09:41:32.386Z,13.23
2023-04-18T09:46:47.617Z,23.80
2023-04-18T09:49:18.096Z,14.50
2023-04-18T09:51:53.306Z,17.40
2023-04-18T09:54:34.808Z,16.38
2023-04-18T09:57:13.403Z,15.10
2023-04-18T09:59:47.429Z,14.57
2023-04-18T10:02:26.878Z,15.52
2023-04-18T10:04:57.887Z,14.07
2023-04-18T10:07:34.383Z,18.08
2023-04-18T10:10:06.054Z,16.58
2023-04-18T10:15:17.925Z,14.88
2023-04-18T10:18:03.391Z,14.53
2023-04-18T10:20:35.511Z,19.45
2023-04-18T10:23:43.253Z,16.38
2023-04-18T10:26:14.568Z,22.52
2023-04-18T10:28:56.270Z,15.02
2023-04-18T10:31:31.599Z,15.93
2023-04-18T10:34:05.721Z,18.92
2023-04-18T10:36:35.731Z,16.88
2023-04-18T10:39:21.170Z,19.67
2023-04-18T10:41:53.507Z,15.23
2023-04-18T10:44:29.248Z,17.58
2023-04-18T10:47:27.893Z,16.75
2023-04-18T10:50:07.850Z,15.45
2023-04-18T10:52:37.225Z,16.00
2023-04-18T10:55:25.782Z,14.88
2023-04-18T10:58:03.428Z,16.83
2023-04-18T11:00:33.787Z,11.95
2023-04-18T11:03:03.281Z,16.42
2023-04-18T11:05:32.897Z,13.63
2023-04-18T11:08:02.076Z,15.45
2023-04-18T11:10:31.383Z,18.10
2023-04-18T11:13:05.718Z,16.45
2023-04-18T11:15:39.611Z,16.60
2023-04-18T11:18:11.347Z,16.00
2023-04-18T11:26:02.954Z,15.25
2023-04-18T11:28:34.313Z,14.33
2023-04-18T11:31:08.911Z,16.77
2023-04-18T11:33:38.399Z,18.35
2023-04-18T11:36:22.210Z,21.60
2023-04-18T11:38:51.939Z,15.00
2023-04-18T11:41:36.129Z,15.95
2023-04-18T11:44:08.257Z,16.52
2023-04-18T11:46:40.864Z,12.80
2023-04-18T11:49:10.352Z,17.30
2023-04-18T11:51:43.312Z,10.05
2023-04-18T11:54:40.877Z,17.45
2023-04-18T11:57:23.260Z,11.30
2023-04-18T11:59:58.872Z,16.33
2023-04-18T12:02:48.906Z,22.60
2023-04-18T12:08:11.591Z,13.30
2023-04-18T12:13:33.193Z,14.85
2023-04-18T12:16:18.998Z,11.55
2023-04-18T12:19:14.054Z,12.05
2023-04-18T12:24:35.838Z,14.00
2023-04-18T12:27:05.243Z,12.70
2023-04-18T12:29:41.597Z,15.30
2023-04-18T12:32:16.855Z,14.85
2023-04-18T12:34:51.437Z,16.63
2023-04-18T12:37:25.196Z,19.83
2023-04-18T12:39:54.705Z,14.18
2023-04-18T12:42:24.190Z,16.10
2023-04-18T12:52:06.013Z,10.95
2023-04-18T12:54:37.992Z,12.88
2023-04-18T12:59:36.341Z,12.18
2023-04-18T13:02:13.737Z,14.40
2023-04-18T13:05:10.073Z,13.30
2023-04-18T13:10:30.714Z,11.18
2023-04-18T13:13:06.601Z,14.93
2023-04-18T13:15:54.353Z,12.02
2023-04-18T13:18:42.174Z,13.75
2023-04-18T13:21:11.527Z,22.00
2023-04-18T13:23:43.422Z,15.82
2023-04-18T13:26:12.897Z,17.95
2023-04-18T13:28:55.223Z,14.77
2023-04-18T13:31:24.729Z,17.23
2023-04-18T13:34:12.777Z,12.55
2023-04-18T13:36:42.230Z,10.00
2023-04-18T13:39:19.833Z,10.40
2023-04-18T13:42:04.743Z,11.88
2023-04-18T13:47:22.392Z,12.85
2023-04-18T13:49:51.840Z,11.27
2023-04-18T13:52:26.280Z,10.10
2023-04-18T13:55:10.671Z,17.13
2023-04-18T13:57:40.855Z,10.85
2023-04-18T14:00:13.650Z,10.30
2023-04-18T14:02:48.336Z,10.20
2023-04-18T14:05:17.803Z,12.20
2023-04-18T14:08:05.550Z,12.93
2023-04-18T14:10:37.055Z,11.45
2023-04-18T14:13:11.376Z,10.93
2023-04-18T14:15:40.759Z,9.70
2023-04-18T14:18:17.508Z,9.27
2023-04-18T14:20:48.178Z,12.15
2023-04-18T14:23:28.132Z,14.75
2023-04-18T14:26:04.653Z,16.23
2023-04-18T14:28:35.478Z,10.73
2023-04-18T14:31:06.224Z,8.52
2023-04-18T14:33:40.787Z,8.77
2023-04-18T14:36:11.112Z,14.43
2023-04-18T14:38:53.499Z,9.15
2023-04-18T14:41:25.314Z,12.13
2023-04-18T14:46:23.619Z,13.82
2023-04-18T14:48:53.084Z,10.90
2023-04-18T14:51:25.813Z,14.57
2023-04-18T14:54:14.026Z,7.88
2023-04-18T14:56:45.398Z,14.95
2023-04-18T14:59:16.708Z,14.90
2023-04-18T15:01:46.501Z,13.98
2023-04-18T15:04:16.267Z,15.68
2023-04-18T15:06:59.054Z,12.40
2023-04-18T15:09:28.621Z,15.95
2023-04-18T15:12:00.198Z,16.77
2023-04-18T15:14:31.158Z,12.55
2023-04-18T15:17:02.645Z,10.70
2023-04-18T15:19:34.134Z,13.25
2023-04-18T15:22:10.515Z,16.55
2023-04-18T15:24:39.922Z,12.25
2023-04-18T15:27:12.026Z,9.88
2023-04-18T15:29:41.289Z,12.65
2023-04-18T15:32:11.134Z,13.43
2023-04-18T15:34:41.045Z,11.43
2023-04-18T15:37:10.447Z,11.30
2023-04-18T15:39:55.113Z,8.40
2023-04-18T15:42:26.443Z,9.40
2023-04-18T15:45:01.032Z,10.70
2023-04-18T15:50:16.638Z,12.77
2023-04-18T15:52:46.039Z,12.10
2023-04-18T15:55:15.439Z,12.63
2023-04-18T15:57:46.712Z,14.15
2023-04-18T16:00:22.975Z,13.93
2023-04-18T16:02:52.715Z,9.82
2023-04-18T16:05:22.408Z,15.15
2023-04-18T16:07:57.814Z,11.05
2023-04-18T16:10:27.153Z,9.07
2023-04-18T16:13:04.205Z,13.82
2023-04-18T16:15:35.177Z,9.95
2023-04-18T16:18:04.593Z,10.87
2023-04-18T16:20:33.802Z,8.10
2023-04-18T16:23:09.216Z,15.35
2023-04-18T16:25:38.826Z,8.32
2023-04-18T16:28:10.279Z,10.75
2023-04-18T16:30:43.367Z,11.00
2023-04-18T16:33:20.493Z,10.13
2023-04-18T16:35:50.199Z,15.10
2023-04-18T16:38:23.108Z,8.93
2023-04-18T16:40:52.441Z,12.13
2023-04-18T16:43:42.212Z,13.30
2023-04-18T16:46:13.368Z,10.68
2023-04-18T16:51:19.532Z,10.48
2023-04-18T16:53:48.884Z,16.15
2023-04-18T16:56:18.295Z,14.20
2023-04-18T16:58:49.563Z,12.30
2023-04-18T17:01:24.200Z,9.48
2023-04-18T17:03:53.869Z,12.73
2023-04-18T17:06:24.940Z,17.90
2023-04-18T17:08:54.525Z,14.20
2023-04-18T17:11:43.662Z,13.35
2023-04-18T17:14:16.273Z,13.38
2023-04-18T17:16:46.032Z,9.73
2023-04-18T17:19:15.602Z,13.32
2023-04-18T17:21:46.079Z,11.82
2023-04-18T17:24:15.622Z,12.98
2023-04-18T17:26:45.200Z,13.55
2023-04-18T17:29:18.180Z,12.40
2023-04-18T17:31:47.464Z,11.90
2023-04-18T17:34:16.807Z,14.70
2023-04-18T17:36:46.388Z,12.55
2023-04-18T17:39:16.716Z,12.57
2023-04-18T17:41:47.672Z,12.02
2023-04-18T17:44:18.995Z,13.37
2023-04-18T17:46:50.670Z,12.18
2023-04-18T17:49:20.075Z,13.10
2023-04-18T17:51:54.371Z,12.35
2023-04-18T17:54:25.175Z,9.68
2023-04-18T17:56:54.527Z,14.52
2023-04-18T17:59:26.046Z,12.00
2023-04-18T18:02:07.295Z,11.02
2023-04-18T18:04:36.994Z,13.85
2023-04-18T18:07:07.809Z,10.85
2023-04-18T18:09:42.210Z,10.40
2023-04-18T18:12:31.989Z,11.45
2023-04-18T18:15:04.298Z,13.18
2023-04-18T18:17:35.391Z,10.73
2023-04-18T18:20:05.298Z,13.15
2023-04-18T18:22:35.280Z,14.13
2023-04-18T18:25:05.670Z,12.20
2023-04-18T18:27:54.143Z,13.90
2023-04-18T18:30:25.789Z,13.07
2023-04-18T18:33:00.408Z,11.60
2023-04-18T18:35:29.694Z,10.95
2023-04-18T18:37:59.289Z,13.13
2023-04-18T18:40:41.530Z,12.35
2023-04-18T18:43:11.020Z,15.45
2023-04-18T18:45:42.629Z,13.77
2023-04-18T18:50:41.566Z,14.38
2023-04-18T18:53:16.597Z,14.70
2023-04-18T18:55:46.030Z,16.67
2023-04-18T18:58:15.346Z,14.95
2023-04-18T19:01:01.409Z,16.77
2023-04-18T19:03:31.077Z,14.15
2023-04-18T19:06:03.506Z,15.50
2023-04-18T19:08:33.162Z,9.45
2023-04-18T19:11:02.419Z,17.10
2023-04-18T19:13:31.879Z,18.00
2023-04-18T19:16:03.066Z,13.90
2023-04-18T19:18:32.843Z,19.30
2023-04-18T19:21:02.146Z,18.65
2023-04-18T19:23:32.823Z,16.73
2023-04-18T19:26:02.780Z,16.02
2023-04-18T19:28:38.184Z,17.00
2023-04-18T19:31:09.990Z,20.50
2023-04-18T19:33:39.943Z,18.95
2023-04-18T19:36:09.373Z,18.38
2023-04-18T19:38:57.007Z,15.45
2023-04-18T19:41:27.494Z,14.63
2023-04-18T19:43:56.852Z,17.10
2023-04-18T19:49:18.202Z,17.27
2023-04-18T19:51:48.548Z,15.50
2023-04-18T19:54:30.876Z,21.90
2023-04-18T19:57:00.778Z,11.77
2023-04-18T19:59:30.050Z,15.10
2023-04-18T20:02:06.865Z,16.23
2023-04-18T20:04:37.081Z,15.07
2023-04-18T20:07:06.645Z,11.15
2023-04-18T20:09:42.019Z,14.73
2023-04-18T20:12:11.577Z,11.68
2023-04-18T20:15:25.826Z,13.70
2023-04-18T20:18:10.128Z,14.57
2023-04-18T20:21:00.006Z,12.10
2023-04-18T20:23:29.507Z,14.48
2023-04-18T20:26:13.810Z,20.00
2023-04-18T20:28:43.262Z,14.88
2023-04-18T20:31:22.921Z,18.80
2023-04-18T20:33:54.445Z,12.88
2023-04-18T20:36:58.088Z,15.60
2023-04-18T20:39:27.665Z,16.38
2023-04-18T20:42:15.833Z,12.02
2023-04-18T20:44:46.372Z,11.02
2023-04-18T20:47:16.125Z,11.10
2023-04-18T20:49:52.464Z,11.75
2023-04-18T20:52:26.952Z,11.25
2023-04-18T20:54:56.351Z,11.57
2023-04-18T20:57:25.656Z,16.42
2023-04-18T21:00:15.819Z,13.98
2023-04-18T21:02:46.498Z,14.18
2023-04-18T21:05:18.200Z,15.10
2023-04-18T21:07:48.974Z,12.02
2023-04-18T21:10:25.303Z,14.98
2023-04-18T21:12:55.125Z,14.73
2023-04-18T21:15:30.163Z,18.20
2023-04-18T21:17:59.873Z,15.45
2023-04-18T21:20:31.497Z,20.65
2023-04-18T21:25:54.364Z,14.07
2023-04-18T21:28:23.881Z,18.52
2023-04-18T21:30:53.568Z,17.00
2023-04-18T21:33:24.287Z,13.23
2023-04-18T21:36:01.445Z,16.33
2023-04-18T21:38:44.388Z,16.80
2023-04-18T21:41:16.631Z,15.35
2023-04-18T21:46:44.198Z,14.68
2023-04-18T21:49:19.947Z,12.55
2023-04-18T21:51:51.303Z,14.20
2023-04-18T21:54:20.796Z,10.60
2023-04-18T21:57:08.608Z,13.02
2023-04-18T21:59:44.692Z,10.95
2023-04-18T22:02:25.597Z,11.43
2023-04-18T22:04:55.319Z,14.05
2023-04-18T22:07:26.701Z,13.02
2023-04-18T22:10:05.523Z,13.98
2023-04-18T22:12:36.317Z,12.15
2023-04-18T22:15:06.165Z,13.57
2023-04-18T22:17:37.587Z,11.32
2023-04-18T22:20:27.837Z,11.55
2023-04-18T22:22:59.122Z,11.10
2023-04-18T22:25:28.572Z,12.90
2023-04-18T22:28:03.480Z,16.63
2023-04-18T22:30:33.026Z,13.25
2023-04-18T22:33:02.292Z,11.38
2023-04-18T22:35:41.934Z,12.07
2023-04-18T22:38:13.508Z,12.10
2023-04-18T22:43:24.634Z,17.13
2023-04-18T22:45:54.296Z,12.35
2023-04-18T22:48:28.623Z,14.95
2023-04-18T22:50:57.903Z,9.85
2023-04-18T22:53:29.097Z,9.13
2023-04-18T22:55:58.829Z,10.23
2023-04-18T22:58:28.102Z,9.25
2023-04-18T23:01:02.320Z,13.98
2023-04-18T23:03:34.312Z,10.27
2023-04-18T23:06:04.320Z,11.35
2023-04-18T23:08:35.466Z,11.98
2023-04-18T23:11:09.749Z,9.90
2023-04-18T23:13:38.948Z,10.25
2023-04-18T23:16:09.549Z,14.57
2023-04-18T23:18:44.153Z,10.95
2023-04-18T23:21:14.028Z,9.20
2023-04-18T23:23:46.225Z,8.20
2023-04-18T23:26:16.109Z,11.90
2023-04-18T23:28:45.580Z,10.57
2023-04-18T23:31:21.677Z,9.32
2023-04-18T23:33:52.245Z,9.35
2023-04-18T23:36:21.583Z,12.38
2023-04-18T23:38:57.867Z,10.85
2023-04-18T23:41:45.174Z,10.27
2023-04-18T23:44:14.625Z,9.18
2023-04-18T23:46:44.006Z,15.30
2023-04-18T23:49:18.517Z,10.82
2023-04-18T23:51:47.888Z,10.88
2023-04-18T23:54:24.167Z,9.55
2023-04-18T23:56:53.522Z,8.70
2023-04-18T23:59:22.778Z,8.13
